createdAt,value
2018-04-22T00:02:40.882Z,99.90
2018-04-22T00:07:14.846Z,99.90
2018-04-22T00:11:48.042Z,99.90
2018-04-22T00:16:21.230Z,99.90
2018-04-22T00:20:55.210Z,99.90
2018-04-22T00:25:28.494Z,99.90
2018-04-22T00:30:01.683Z,99.90
2018-04-22T00:34:34.874Z,99.90
2018-04-22T00:39:08.829Z,99.90
2018-04-22T00:43:42.027Z,99.90
2018-04-22T00:48:15.213Z,99.90
2018-04-22T00:52:49.327Z,99.90
2018-04-22T00:57:23.290Z,99.90
2018-04-22T01:01:56.478Z,99.90
2018-04-22T01:06:30.451Z,99.90
2018-04-22T01:11:03.618Z,99.90
2018-04-22T01:15:36.807Z,99.90
2018-04-22T01:20:10.763Z,99.90
2018-04-22T01:24:43.956Z,99.90
2018-04-22T01:29:17.159Z,99.90
2018-04-22T01:33:50.323Z,99.90
2018-04-22T01:38:23.526Z,99.90
2018-04-22T01:42:56.718Z,99.90
2018-04-22T01:47:29.907Z,99.90
2018-04-22T01:52:03.075Z,99.90
2018-04-22T01:56:37.034Z,99.90
2018-04-22T02:01:10.574Z,99.90
2018-04-22T02:05:43.764Z,99.90
2018-04-22T02:10:16.955Z,99.90
2018-04-22T02:14:50.146Z,99.90
2018-04-22T02:19:23.309Z,99.90
2018-04-22T02:23:56.499Z,99.90
2018-04-22T02:28:29.687Z,99.90
2018-04-22T02:33:02.886Z,99.90
2018-04-22T02:37:36.058Z,99.90
2018-04-22T02:42:10.017Z,99.90
2018-04-22T02:46:43.204Z,99.90
2018-04-22T02:51:16.398Z,99.90
2018-04-22T02:55:50.355Z,99.90
2018-04-22T03:00:23.546Z,99.90
2018-04-22T03:04:56.737Z,99.90
2018-04-22T03:09:30.696Z,99.90
2018-04-22T03:14:03.881Z,99.90
2018-04-22T03:18:37.086Z,99.90
2018-04-22T03:23:10.250Z,99.90
2018-04-22T03:27:43.436Z,99.90
2018-04-22T03:32:16.626Z,99.90
2018-04-22T03:36:49.814Z,99.90
2018-04-22T03:41:23.017Z,99.90
2018-04-22T03:45:56.210Z,99.90
2018-04-22T03:50:30.138Z,99.90
2018-04-22T03:55:04.090Z,99.90
2018-04-22T03:59:37.284Z,99.90
2018-04-22T04:04:10.458Z,99.90
2018-04-22T04:08:43.647Z,99.90
2018-04-22T04:13:16.842Z,99.90
2018-04-22T04:23:06.649Z,99.90
2018-04-22T04:27:47.615Z,99.90
2018-04-22T04:32:20.778Z,99.90
2018-04-22T04:36:53.969Z,99.90
2018-04-22T04:41:27.153Z,99.90
2018-04-22T04:46:00.346Z,99.90
2018-04-22T04:50:33.557Z,99.90
2018-04-22T04:55:06.786Z,99.90
2018-04-22T04:59:39.973Z,99.90
2018-04-22T05:04:13.172Z,99.90
2018-04-22T05:08:46.359Z,99.90
2018-04-22T05:13:20.385Z,99.90
2018-04-22T05:17:54.338Z,99.90
2018-04-22T05:22:27.542Z,99.90
2018-04-22T05:27:00.817Z,99.90
2018-04-22T05:31:35.010Z,99.90
2018-04-22T05:36:08.209Z,99.90
2018-04-22T05:40:41.458Z,99.90
2018-04-22T05:45:15.417Z,99.90
2018-04-22T05:49:48.621Z,99.90
2018-04-22T05:54:21.943Z,99.90
2018-04-22T05:58:55.286Z,99.90
2018-04-22T06:03:29.246Z,99.90
2018-04-22T06:08:03.266Z,99.90
2018-04-22T06:12:37.223Z,99.90
2018-04-22T06:17:10.493Z,99.90
2018-04-22T06:21:43.706Z,99.90
2018-04-22T06:26:17.634Z,99.90
2018-04-22T06:30:51.586Z,99.90
2018-04-22T06:35:24.821Z,99.90
2018-04-22T06:39:58.143Z,99.90
2018-04-22T06:44:32.110Z,99.70
2018-04-22T06:49:05.321Z,99.70
2018-04-22T06:53:38.514Z,99.40
2018-04-22T06:58:11.714Z,98.60
2018-04-22T07:02:45.686Z,97.90
2018-04-22T07:07:18.855Z,97.90
2018-04-22T07:11:52.089Z,97.60
2018-04-22T07:16:25.278Z,96.50
2018-04-22T07:20:58.486Z,95.50
2018-04-22T07:25:31.654Z,94.50
2018-04-22T07:30:04.848Z,93.40
2018-04-22T07:34:38.049Z,92.40
2018-04-22T07:39:11.246Z,92.20
2018-04-22T07:43:45.253Z,90.60
2018-04-22T07:48:18.454Z,90.50
2018-04-22T07:52:51.643Z,89.90
2018-04-22T07:57:24.853Z,86.50
2018-04-22T08:01:58.062Z,82.30
2018-04-22T08:06:31.341Z,79.70
2018-04-22T08:11:05.274Z,70.80
2018-04-22T08:15:39.237Z,66.10
2018-04-22T08:20:12.430Z,66.00
2018-04-22T08:24:45.630Z,64.80
2018-04-22T08:29:18.843Z,62.00
2018-04-22T08:33:56.983Z,58.20
2018-04-22T08:38:30.135Z,56.30
2018-04-22T08:43:03.329Z,55.10
2018-04-22T08:47:37.615Z,55.90
2018-04-22T08:52:10.797Z,55.90
2018-04-22T08:56:44.811Z,52.10
2018-04-22T09:01:17.965Z,52.00
2018-04-22T09:05:51.154Z,52.20
2018-04-22T09:10:24.427Z,50.50
2018-04-22T09:14:58.351Z,46.50
2018-04-22T09:19:32.306Z,45.20
2018-04-22T09:24:05.494Z,45.10
2018-04-22T09:28:40.989Z,46.00
2018-04-22T09:33:16.667Z,43.70
2018-04-22T09:37:50.399Z,43.70
2018-04-22T09:42:23.633Z,41.70
2018-04-22T09:46:57.582Z,39.20
2018-04-22T09:51:32.823Z,39.00
2018-04-22T09:56:06.631Z,41.50
2018-04-22T10:00:40.299Z,40.40
2018-04-22T10:05:13.518Z,40.50
2018-04-22T10:09:46.763Z,37.50
2018-04-22T10:14:20.709Z,40.20
2018-04-22T10:18:53.898Z,40.30
2018-04-22T10:23:27.853Z,38.70
2018-04-22T10:28:01.475Z,38.60
2018-04-22T10:32:35.522Z,41.10
2018-04-22T10:37:09.425Z,43.10
2018-04-22T10:41:43.623Z,44.30
2018-04-22T10:46:18.647Z,44.30
2018-04-22T10:50:52.255Z,44.30
2018-04-22T10:55:25.424Z,43.20
2018-04-22T10:59:58.621Z,40.10
2018-04-22T11:04:31.786Z,39.40
2018-04-22T11:09:06.102Z,39.00
2018-04-22T11:13:39.442Z,38.00
2018-04-22T11:18:13.162Z,37.90
2018-04-22T11:22:46.390Z,36.60
2018-04-22T11:27:19.621Z,36.80
2018-04-22T11:31:52.846Z,37.10
2018-04-22T11:36:26.062Z,35.20
2018-04-22T11:40:59.250Z,35.40
2018-04-22T11:45:32.434Z,36.30
2018-04-22T11:50:05.783Z,38.30
2018-04-22T11:54:38.949Z,38.70
2018-04-22T11:59:12.136Z,37.70
2018-04-22T12:03:46.092Z,36.50
2018-04-22T12:08:19.682Z,36.50
2018-04-22T12:12:53.300Z,37.80
2018-04-22T12:17:26.508Z,37.90
2018-04-22T12:22:00.104Z,35.50
2018-04-22T12:26:33.729Z,35.30
2018-04-22T12:31:07.681Z,34.70
2018-04-22T12:35:40.863Z,34.70
2018-04-22T12:40:14.968Z,33.40
2018-04-22T12:44:48.153Z,33.30
2018-04-22T12:49:21.350Z,33.00
2018-04-22T12:53:54.571Z,31.60
2018-04-22T12:58:27.763Z,31.20
2018-04-22T13:03:00.947Z,31.70
2018-04-22T13:07:34.182Z,33.10
2018-04-22T13:12:07.422Z,33.40
2018-04-22T13:16:41.382Z,30.20
2018-04-22T13:21:14.547Z,30.10
2018-04-22T13:25:47.897Z,30.80
2018-04-22T13:30:21.269Z,31.70
2018-04-22T13:34:54.452Z,31.50
2018-04-22T13:39:27.651Z,33.90
2018-04-22T13:44:00.891Z,35.60
2018-04-22T13:48:34.838Z,36.30
2018-04-22T13:53:08.233Z,35.90
2018-04-22T13:57:42.177Z,37.20
2018-04-22T14:02:15.373Z,37.10
2018-04-22T14:06:49.304Z,38.40
2018-04-22T14:11:22.487Z,38.40
2018-04-22T14:15:56.842Z,35.60
2018-04-22T14:20:30.158Z,35.40
2018-04-22T14:25:03.602Z,36.80
2018-04-22T14:29:37.430Z,35.90
2018-04-22T14:34:10.752Z,33.80
2018-04-22T14:38:44.180Z,32.40
2018-04-22T14:43:17.497Z,31.60
2018-04-22T14:47:51.457Z,33.50
2018-04-22T14:52:24.642Z,33.50
2018-04-22T14:56:57.863Z,34.20
2018-04-22T15:01:31.151Z,35.50
2018-04-22T15:06:05.078Z,35.70
2018-04-22T15:10:39.523Z,34.10
2018-04-22T15:15:12.829Z,34.10
2018-04-22T15:19:46.044Z,34.30
2018-04-22T15:24:19.242Z,33.70
2018-04-22T15:28:52.426Z,33.50
2018-04-22T15:33:26.395Z,33.20
2018-04-22T15:37:59.560Z,33.10
2018-04-22T15:42:32.751Z,34.30
2018-04-22T15:47:05.998Z,34.90
2018-04-22T15:51:39.193Z,35.80
2018-04-22T15:56:13.147Z,37.90
2018-04-22T16:00:46.338Z,37.70
2018-04-22T16:05:19.503Z,37.50
2018-04-22T16:09:52.715Z,38.30
2018-04-22T16:14:25.960Z,37.00
2018-04-22T16:18:59.935Z,37.20
2018-04-22T16:23:33.095Z,37.20
2018-04-22T16:28:06.274Z,37.50
2018-04-22T16:32:40.234Z,37.40
2018-04-22T16:37:13.402Z,37.30
2018-04-22T16:41:47.345Z,39.10
2018-04-22T16:46:20.533Z,39.00
2018-04-22T16:50:54.486Z,38.40
2018-04-22T16:55:27.669Z,38.30
2018-04-22T17:00:01.621Z,39.20
2018-04-22T17:04:34.899Z,39.10
2018-04-22T17:09:08.849Z,38.80
2018-04-22T17:13:42.041Z,38.80
2018-04-22T17:18:15.228Z,39.50
2018-04-22T17:22:49.186Z,40.00
2018-04-22T17:27:22.391Z,40.00
2018-04-22T17:31:55.547Z,40.50
2018-04-22T17:36:28.747Z,41.50
2018-04-22T17:41:01.955Z,44.50
2018-04-22T17:45:35.115Z,44.30
2018-04-22T17:50:09.839Z,44.80
2018-04-22T17:54:43.041Z,44.80
2018-04-22T17:59:16.314Z,48.00
2018-04-22T18:03:49.481Z,49.50
2018-04-22T18:08:22.670Z,51.30
2018-04-22T18:12:55.858Z,52.80
2018-04-22T18:17:29.820Z,53.60
2018-04-22T18:22:03.027Z,53.50
2018-04-22T18:26:36.199Z,55.60
2018-04-22T18:31:10.150Z,57.90
2018-04-22T18:35:43.337Z,57.80
2018-04-22T18:40:16.526Z,59.00
2018-04-22T18:44:50.486Z,64.00
2018-04-22T18:49:23.673Z,64.00
2018-04-22T18:53:56.865Z,70.00
2018-04-22T18:58:30.875Z,71.80
2018-04-22T19:03:04.843Z,75.80
2018-04-22T19:07:44.181Z,75.30
2018-04-22T19:12:17.394Z,77.80
2018-04-22T19:16:50.592Z,79.60
2018-04-22T19:21:23.786Z,80.30
2018-04-22T19:25:58.094Z,79.40
2018-04-22T19:30:32.795Z,81.00
2018-04-22T19:35:06.035Z,80.90
2018-04-22T19:39:40.192Z,85.00
2018-04-22T19:44:13.410Z,84.80
2018-04-22T19:48:46.722Z,85.40
2018-04-22T19:53:20.216Z,86.30
2018-04-22T19:57:54.236Z,88.20
2018-04-22T20:02:27.771Z,88.10
2018-04-22T20:07:01.053Z,89.50
2018-04-22T20:11:35.014Z,90.60
2018-04-22T20:16:08.911Z,90.60
2018-04-22T20:20:42.265Z,90.90
2018-04-22T20:25:16.582Z,91.30
2018-04-22T20:29:51.338Z,91.80
2018-04-22T20:34:24.557Z,91.80
2018-04-22T20:38:58.388Z,92.20
2018-04-22T20:43:31.610Z,92.00
2018-04-22T20:48:05.657Z,92.30
2018-04-22T20:52:39.732Z,92.90
2018-04-22T20:57:12.902Z,92.90
2018-04-22T21:01:46.991Z,93.50
2018-04-22T21:06:20.443Z,93.50
2018-04-22T21:10:54.041Z,93.60
2018-04-22T21:15:27.226Z,93.80
2018-04-22T21:20:00.417Z,94.00
2018-04-22T21:24:33.607Z,94.20
2018-04-22T21:29:06.811Z,94.20
2018-04-22T21:33:40.003Z,93.90
2018-04-22T21:38:13.186Z,94.40
2018-04-22T21:42:47.134Z,94.40
2018-04-22T21:47:20.639Z,94.40
2018-04-22T21:51:53.855Z,94.50
2018-04-22T21:56:27.056Z,94.60
2018-04-22T22:01:00.274Z,94.90
2018-04-22T22:05:33.433Z,95.00
2018-04-22T22:10:06.627Z,95.40
2018-04-22T22:14:39.886Z,95.90
2018-04-22T22:19:13.050Z,95.90
2018-04-22T22:23:46.239Z,95.80
2018-04-22T22:28:19.438Z,96.10
2018-04-22T22:32:52.602Z,96.20
2018-04-22T22:37:25.798Z,96.10
2018-04-22T22:41:59.726Z,96.20
2018-04-22T22:46:33.695Z,96.30
2018-04-22T22:51:06.882Z,96.30
2018-04-22T22:55:40.070Z,96.60
2018-04-22T23:00:13.269Z,96.70
2018-04-22T23:04:46.494Z,96.70
2018-04-22T23:09:19.650Z,96.90
2018-04-22T23:13:52.842Z,96.90
2018-04-22T23:18:26.035Z,96.80
2018-04-22T23:22:59.274Z,96.80
2018-04-22T23:27:32.460Z,96.50
2018-04-22T23:32:05.662Z,96.50
2018-04-22T23:36:38.868Z,96.70
2018-04-22T23:41:12.026Z,97.00
2018-04-22T23:45:45.982Z,97.20
2018-04-22T23:50:19.469Z,97.20
2018-04-22T23:54:53.434Z,97.00
2018-04-22T23:59:26.586Z,97.00
